sensor_id;sensor_type;location;lat;lon;timestamp;P1;durP1;ratioP1;P2;durP2;ratioP2
68214;SDS011;55036;52.138;5.236;2022-10-31T00:01:11;11.65;;;5.82;;
68214;SDS011;55036;52.138;5.236;2022-10-31T00:03:42;9.02;;;5.30;;
68214;SDS011;55036;52.138;5.236;2022-10-31T00:06:08;10.38;;;5.90;;
68214;SDS011;55036;52.138;5.236;2022-10-31T00:08:35;10.98;;;5.78;;
68214;SDS011;55036;52.138;5.236;2022-10-31T00:11:01;10.52;;;5.00;;
68214;SDS011;55036;52.138;5.236;2022-10-31T00:13:28;17.65;;;5.53;;
68214;SDS011;55036;52.138;5.236;2022-10-31T00:15:55;9.68;;;6.05;;
68214;SDS011;55036;52.138;5.236;2022-10-31T00:18:21;15.90;;;5.80;;
68214;SDS011;55036;52.138;5.236;2022-10-31T00:20:48;14.18;;;5.65;;
68214;SDS011;55036;52.138;5.236;2022-10-31T00:23:15;10.32;;;6.25;;
68214;SDS011;55036;52.138;5.236;2022-10-31T00:25:41;12.30;;;6.80;;
68214;SDS011;55036;52.138;5.236;2022-10-31T00:28:08;12.10;;;6.88;;
68214;SDS011;55036;52.138;5.236;2022-10-31T00:30:37;12.50;;;6.10;;
68214;SDS011;55036;52.138;5.236;2022-10-31T00:33:03;12.18;;;6.30;;
68214;SDS011;55036;52.138;5.236;2022-10-31T00:35:31;13.73;;;6.20;;
68214;SDS011;55036;52.138;5.236;2022-10-31T00:37:58;11.93;;;5.43;;
68214;SDS011;55036;52.138;5.236;2022-10-31T00:40:25;11.57;;;5.47;;
68214;SDS011;55036;52.138;5.236;2022-10-31T00:42:51;11.10;;;6.38;;
68214;SDS011;55036;52.138;5.236;2022-10-31T00:45:18;12.95;;;5.82;;
68214;SDS011;55036;52.138;5.236;2022-10-31T00:47:45;11.40;;;5.68;;
68214;SDS011;55036;52.138;5.236;2022-10-31T00:50:11;14.73;;;5.90;;
68214;SDS011;55036;52.138;5.236;2022-10-31T00:52:38;13.68;;;6.45;;
68214;SDS011;55036;52.138;5.236;2022-10-31T00:55:04;11.38;;;6.30;;
68214;SDS011;55036;52.138;5.236;2022-10-31T00:57:31;12.05;;;5.95;;
68214;SDS011;55036;52.138;5.236;2022-10-31T00:59:58;14.10;;;6.55;;
68214;SDS011;55036;52.138;5.236;2022-10-31T01:02:24;10.85;;;6.20;;
68214;SDS011;55036;52.138;5.236;2022-10-31T01:04:51;10.80;;;6.53;;
68214;SDS011;55036;52.138;5.236;2022-10-31T01:07:18;12.38;;;7.07;;
68214;SDS011;55036;52.138;5.236;2022-10-31T01:09:44;11.95;;;6.97;;
68214;SDS011;55036;52.138;5.236;2022-10-31T01:12:11;13.88;;;7.13;;
68214;SDS011;55036;52.138;5.236;2022-10-31T01:14:37;16.92;;;7.22;;
68214;SDS011;55036;52.138;5.236;2022-10-31T01:17:04;12.60;;;6.65;;
68214;SDS011;55036;52.138;5.236;2022-10-31T01:19:30;13.90;;;7.28;;
68214;SDS011;55036;52.138;5.236;2022-10-31T01:21:57;13.20;;;6.97;;
68214;SDS011;55036;52.138;5.236;2022-10-31T01:24:24;11.82;;;6.53;;
68214;SDS011;55036;52.138;5.236;2022-10-31T01:26:50;10.55;;;6.63;;
68214;SDS011;55036;52.138;5.236;2022-10-31T01:29:17;13.18;;;6.28;;
68214;SDS011;55036;52.138;5.236;2022-10-31T01:31:43;9.95;;;6.57;;
68214;SDS011;55036;52.138;5.236;2022-10-31T01:34:15;12.02;;;6.55;;
68214;SDS011;55036;52.138;5.236;2022-10-31T01:36:43;10.65;;;6.68;;
68214;SDS011;55036;52.138;5.236;2022-10-31T01:39:14;14.43;;;6.53;;
68214;SDS011;55036;52.138;5.236;2022-10-31T01:41:42;10.23;;;6.22;;
68214;SDS011;55036;52.138;5.236;2022-10-31T01:46:44;11.82;;;6.78;;
68214;SDS011;55036;52.138;5.236;2022-10-31T01:49:18;14.50;;;7.70;;
68214;SDS011;55036;52.138;5.236;2022-10-31T01:51:56;12.02;;;6.50;;
68214;SDS011;55036;52.138;5.236;2022-10-31T01:54:37;15.13;;;7.22;;
68214;SDS011;55036;52.138;5.236;2022-10-31T01:57:12;18.50;;;7.10;;
68214;SDS011;55036;52.138;5.236;2022-10-31T01:59:42;13.95;;;6.65;;
68214;SDS011;55036;52.138;5.236;2022-10-31T02:02:12;11.05;;;7.15;;
68214;SDS011;55036;52.138;5.236;2022-10-31T02:04:40;13.05;;;7.68;;
68214;SDS011;55036;52.138;5.236;2022-10-31T02:07:08;17.00;;;6.63;;
68214;SDS011;55036;52.138;5.236;2022-10-31T02:09:39;12.40;;;7.03;;
68214;SDS011;55036;52.138;5.236;2022-10-31T02:12:06;13.48;;;7.13;;
68214;SDS011;55036;52.138;5.236;2022-10-31T02:14:36;12.73;;;6.95;;
68214;SDS011;55036;52.138;5.236;2022-10-31T02:17:04;13.18;;;6.55;;
68214;SDS011;55036;52.138;5.236;2022-10-31T02:22:28;12.82;;;6.55;;
68214;SDS011;55036;52.138;5.236;2022-10-31T02:33:51;20.42;;;7.90;;
68214;SDS011;55036;52.138;5.236;2022-10-31T02:36:59;9.23;;;6.93;;
68214;SDS011;55036;52.138;5.236;2022-10-31T02:39:35;16.33;;;7.63;;
68214;SDS011;55036;52.138;5.236;2022-10-31T02:47:29;11.55;;;6.97;;
68214;SDS011;55036;52.138;5.236;2022-10-31T02:50:02;12.70;;;7.78;;
68214;SDS011;55036;52.138;5.236;2022-10-31T02:52:31;15.70;;;7.50;;
68214;SDS011;55036;52.138;5.236;2022-10-31T02:55:08;12.88;;;7.13;;
68214;SDS011;55036;52.138;5.236;2022-10-31T02:58:00;15.65;;;7.60;;
68214;SDS011;55036;52.138;5.236;2022-10-31T03:00:42;15.02;;;7.90;;
68214;SDS011;55036;52.138;5.236;2022-10-31T03:08:50;11.25;;;7.68;;
68214;SDS011;55036;52.138;5.236;2022-10-31T03:11:37;16.33;;;8.85;;
68214;SDS011;55036;52.138;5.236;2022-10-31T03:14:30;15.95;;;8.80;;
68214;SDS011;55036;52.138;5.236;2022-10-31T03:17:07;10.13;;;7.68;;
68214;SDS011;55036;52.138;5.236;2022-10-31T03:19:45;12.27;;;8.40;;
68214;SDS011;55036;52.138;5.236;2022-10-31T03:24:50;12.63;;;7.32;;
68214;SDS011;55036;52.138;5.236;2022-10-31T03:27:18;13.85;;;7.80;;
68214;SDS011;55036;52.138;5.236;2022-10-31T03:29:48;12.65;;;8.02;;
68214;SDS011;55036;52.138;5.236;2022-10-31T03:32:19;12.20;;;8.38;;
68214;SDS011;55036;52.138;5.236;2022-10-31T03:34:50;16.33;;;9.15;;
68214;SDS011;55036;52.138;5.236;2022-10-31T03:37:21;20.75;;;8.85;;
68214;SDS011;55036;52.138;5.236;2022-10-31T03:39:50;14.85;;;7.97;;
68214;SDS011;55036;52.138;5.236;2022-10-31T03:42:21;15.90;;;9.52;;
68214;SDS011;55036;52.138;5.236;2022-10-31T03:45:12;14.43;;;8.50;;
68214;SDS011;55036;52.138;5.236;2022-10-31T03:47:47;15.30;;;8.77;;
68214;SDS011;55036;52.138;5.236;2022-10-31T03:50:14;13.55;;;8.90;;
68214;SDS011;55036;52.138;5.236;2022-10-31T03:55:22;16.27;;;8.10;;
68214;SDS011;55036;52.138;5.236;2022-10-31T03:57:59;17.13;;;8.00;;
68214;SDS011;55036;52.138;5.236;2022-10-31T04:00:31;11.25;;;7.60;;
68214;SDS011;55036;52.138;5.236;2022-10-31T04:03:00;10.70;;;7.80;;
68214;SDS011;55036;52.138;5.236;2022-10-31T04:05:37;13.38;;;7.82;;
68214;SDS011;55036;52.138;5.236;2022-10-31T04:08:06;22.23;;;8.30;;
68214;SDS011;55036;52.138;5.236;2022-10-31T04:10:38;13.63;;;8.98;;
68214;SDS011;55036;52.138;5.236;2022-10-31T04:13:07;15.65;;;7.72;;
68214;SDS011;55036;52.138;5.236;2022-10-31T04:15:36;12.07;;;7.72;;
68214;SDS011;55036;52.138;5.236;2022-10-31T04:18:04;15.43;;;8.02;;
68214;SDS011;55036;52.138;5.236;2022-10-31T04:20:32;15.75;;;9.70;;
68214;SDS011;55036;52.138;5.236;2022-10-31T04:23:01;19.55;;;9.43;;
68214;SDS011;55036;52.138;5.236;2022-10-31T04:25:28;15.27;;;9.50;;
68214;SDS011;55036;52.138;5.236;2022-10-31T04:27:54;14.88;;;9.63;;
68214;SDS011;55036;52.138;5.236;2022-10-31T04:30:22;13.73;;;8.60;;
68214;SDS011;55036;52.138;5.236;2022-10-31T04:32:48;14.68;;;8.60;;
68214;SDS011;55036;52.138;5.236;2022-10-31T04:35:15;16.02;;;9.57;;
68214;SDS011;55036;52.138;5.236;2022-10-31T04:37:42;14.90;;;9.02;;
68214;SDS011;55036;52.138;5.236;2022-10-31T04:40:08;16.88;;;8.73;;
68214;SDS011;55036;52.138;5.236;2022-10-31T04:42:35;14.25;;;7.95;;
68214;SDS011;55036;52.138;5.236;2022-10-31T04:45:02;14.02;;;7.80;;
68214;SDS011;55036;52.138;5.236;2022-10-31T04:47:30;10.60;;;7.53;;
68214;SDS011;55036;52.138;5.236;2022-10-31T04:50:00;12.10;;;8.23;;
68214;SDS011;55036;52.138;5.236;2022-10-31T04:52:28;15.35;;;8.40;;
68214;SDS011;55036;52.138;5.236;2022-10-31T04:54:54;19.45;;;9.27;;
68214;SDS011;55036;52.138;5.236;2022-10-31T04:57:21;15.75;;;8.35;;
68214;SDS011;55036;52.138;5.236;2022-10-31T04:59:47;13.45;;;8.52;;
68214;SDS011;55036;52.138;5.236;2022-10-31T05:02:14;16.15;;;9.35;;
68214;SDS011;55036;52.138;5.236;2022-10-31T05:04:41;12.32;;;8.85;;
68214;SDS011;55036;52.138;5.236;2022-10-31T05:07:07;13.73;;;8.80;;
68214;SDS011;55036;52.138;5.236;2022-10-31T05:09:34;13.43;;;8.85;;
68214;SDS011;55036;52.138;5.236;2022-10-31T05:12:01;15.50;;;9.10;;
68214;SDS011;55036;52.138;5.236;2022-10-31T05:14:27;12.63;;;8.95;;
68214;SDS011;55036;52.138;5.236;2022-10-31T05:16:54;14.20;;;8.85;;
68214;SDS011;55036;52.138;5.236;2022-10-31T05:19:20;12.15;;;8.68;;
68214;SDS011;55036;52.138;5.236;2022-10-31T05:21:47;11.27;;;7.85;;
68214;SDS011;55036;52.138;5.236;2022-10-31T05:24:13;16.02;;;8.02;;
68214;SDS011;55036;52.138;5.236;2022-10-31T05:26:40;12.68;;;7.82;;
68214;SDS011;55036;52.138;5.236;2022-10-31T05:29:06;12.80;;;8.00;;
68214;SDS011;55036;52.138;5.236;2022-10-31T05:31:33;15.10;;;7.80;;
68214;SDS011;55036;52.138;5.236;2022-10-31T05:34:00;15.98;;;9.23;;
68214;SDS011;55036;52.138;5.236;2022-10-31T05:36:26;11.38;;;8.52;;
68214;SDS011;55036;52.138;5.236;2022-10-31T05:38:53;16.15;;;8.82;;
68214;SDS011;55036;52.138;5.236;2022-10-31T05:41:19;12.00;;;9.02;;
68214;SDS011;55036;52.138;5.236;2022-10-31T05:43:46;15.20;;;9.77;;
68214;SDS011;55036;52.138;5.236;2022-10-31T05:46:12;13.25;;;8.45;;
68214;SDS011;55036;52.138;5.236;2022-10-31T05:48:39;14.85;;;9.27;;
68214;SDS011;55036;52.138;5.236;2022-10-31T05:51:06;13.13;;;8.80;;
68214;SDS011;55036;52.138;5.236;2022-10-31T05:53:32;13.23;;;8.48;;
68214;SDS011;55036;52.138;5.236;2022-10-31T05:55:59;15.43;;;9.35;;
68214;SDS011;55036;52.138;5.236;2022-10-31T05:58:25;14.93;;;9.13;;
68214;SDS011;55036;52.138;5.236;2022-10-31T06:00:52;18.70;;;8.90;;
68214;SDS011;55036;52.138;5.236;2022-10-31T06:03:19;14.65;;;9.60;;
68214;SDS011;55036;52.138;5.236;2022-10-31T06:05:45;19.25;;;9.13;;
68214;SDS011;55036;52.138;5.236;2022-10-31T06:08:19;16.17;;;9.43;;
68214;SDS011;55036;52.138;5.236;2022-10-31T06:10:45;16.42;;;8.73;;
68214;SDS011;55036;52.138;5.236;2022-10-31T06:13:12;11.85;;;8.18;;
68214;SDS011;55036;52.138;5.236;2022-10-31T06:15:39;13.50;;;8.35;;
68214;SDS011;55036;52.138;5.236;2022-10-31T06:18:07;15.25;;;9.43;;
68214;SDS011;55036;52.138;5.236;2022-10-31T06:20:34;17.77;;;9.32;;
68214;SDS011;55036;52.138;5.236;2022-10-31T06:23:01;11.40;;;8.75;;
68214;SDS011;55036;52.138;5.236;2022-10-31T06:25:28;16.08;;;10.48;;
68214;SDS011;55036;52.138;5.236;2022-10-31T06:27:55;14.82;;;8.80;;
68214;SDS011;55036;52.138;5.236;2022-10-31T06:30:23;16.10;;;10.07;;
68214;SDS011;55036;52.138;5.236;2022-10-31T06:32:50;13.68;;;10.02;;
68214;SDS011;55036;52.138;5.236;2022-10-31T06:35:17;16.27;;;9.68;;
68214;SDS011;55036;52.138;5.236;2022-10-31T06:37:50;15.80;;;9.57;;
68214;SDS011;55036;52.138;5.236;2022-10-31T06:40:17;14.98;;;8.98;;
68214;SDS011;55036;52.138;5.236;2022-10-31T06:42:44;17.25;;;10.02;;
68214;SDS011;55036;52.138;5.236;2022-10-31T06:45:10;15.98;;;9.50;;
68214;SDS011;55036;52.138;5.236;2022-10-31T06:47:37;16.92;;;9.68;;
68214;SDS011;55036;52.138;5.236;2022-10-31T06:50:22;18.10;;;9.68;;
68214;SDS011;55036;52.138;5.236;2022-10-31T06:52:53;16.17;;;9.88;;
68214;SDS011;55036;52.138;5.236;2022-10-31T06:55:21;18.80;;;9.88;;
68214;SDS011;55036;52.138;5.236;2022-10-31T06:57:49;16.70;;;10.27;;
68214;SDS011;55036;52.138;5.236;2022-10-31T07:00:23;17.45;;;10.52;;
68214;SDS011;55036;52.138;5.236;2022-10-31T07:03:00;15.90;;;10.25;;
68214;SDS011;55036;52.138;5.236;2022-10-31T07:05:29;14.45;;;10.30;;
68214;SDS011;55036;52.138;5.236;2022-10-31T07:07:57;19.38;;;10.02;;
68214;SDS011;55036;52.138;5.236;2022-10-31T07:10:26;16.40;;;10.80;;
68214;SDS011;55036;52.138;5.236;2022-10-31T07:12:58;17.77;;;11.30;;
68214;SDS011;55036;52.138;5.236;2022-10-31T07:15:27;18.42;;;10.60;;
68214;SDS011;55036;52.138;5.236;2022-10-31T07:18:05;18.38;;;11.73;;
68214;SDS011;55036;52.138;5.236;2022-10-31T07:20:33;26.13;;;15.13;;
68214;SDS011;55036;52.138;5.236;2022-10-31T07:23:00;18.02;;;11.05;;
68214;SDS011;55036;52.138;5.236;2022-10-31T07:25:27;20.45;;;12.32;;
68214;SDS011;55036;52.138;5.236;2022-10-31T07:27:54;20.75;;;14.25;;
68214;SDS011;55036;52.138;5.236;2022-10-31T07:30:21;21.60;;;14.70;;
68214;SDS011;55036;52.138;5.236;2022-10-31T07:32:48;17.73;;;12.25;;
68214;SDS011;55036;52.138;5.236;2022-10-31T07:35:18;21.60;;;13.10;;
68214;SDS011;55036;52.138;5.236;2022-10-31T07:37:46;22.42;;;12.55;;
68214;SDS011;55036;52.138;5.236;2022-10-31T07:40:13;19.20;;;12.80;;
68214;SDS011;55036;52.138;5.236;2022-10-31T07:42:40;22.08;;;12.93;;
68214;SDS011;55036;52.138;5.236;2022-10-31T07:45:10;26.88;;;14.23;;
68214;SDS011;55036;52.138;5.236;2022-10-31T07:47:39;22.63;;;11.98;;
68214;SDS011;55036;52.138;5.236;2022-10-31T07:50:14;23.48;;;14.32;;
68214;SDS011;55036;52.138;5.236;2022-10-31T07:52:42;22.73;;;12.88;;
68214;SDS011;55036;52.138;5.236;2022-10-31T07:55:09;15.50;;;10.73;;
68214;SDS011;55036;52.138;5.236;2022-10-31T07:57:36;16.48;;;10.57;;
68214;SDS011;55036;52.138;5.236;2022-10-31T08:00:03;19.40;;;12.30;;
68214;SDS011;55036;52.138;5.236;2022-10-31T08:02:31;15.13;;;11.27;;
68214;SDS011;55036;52.138;5.236;2022-10-31T08:04:58;20.25;;;11.23;;
68214;SDS011;55036;52.138;5.236;2022-10-31T08:07:27;19.48;;;12.60;;
68214;SDS011;55036;52.138;5.236;2022-10-31T08:09:54;18.70;;;10.80;;
68214;SDS011;55036;52.138;5.236;2022-10-31T08:12:22;23.17;;;14.23;;
68214;SDS011;55036;52.138;5.236;2022-10-31T08:14:48;22.88;;;11.63;;
68214;SDS011;55036;52.138;5.236;2022-10-31T08:17:16;17.63;;;11.68;;
68214;SDS011;55036;52.138;5.236;2022-10-31T08:19:42;17.83;;;13.05;;
68214;SDS011;55036;52.138;5.236;2022-10-31T08:22:09;16.45;;;12.18;;
68214;SDS011;55036;52.138;5.236;2022-10-31T08:24:35;21.88;;;15.05;;
68214;SDS011;55036;52.138;5.236;2022-10-31T08:27:02;18.95;;;12.20;;
68214;SDS011;55036;52.138;5.236;2022-10-31T08:29:29;19.65;;;13.50;;
68214;SDS011;55036;52.138;5.236;2022-10-31T08:31:57;18.50;;;13.15;;
68214;SDS011;55036;52.138;5.236;2022-10-31T08:34:24;19.52;;;14.40;;
68214;SDS011;55036;52.138;5.236;2022-10-31T08:36:51;20.92;;;13.80;;
68214;SDS011;55036;52.138;5.236;2022-10-31T08:39:18;21.73;;;14.43;;
68214;SDS011;55036;52.138;5.236;2022-10-31T08:41:44;20.75;;;13.27;;
68214;SDS011;55036;52.138;5.236;2022-10-31T08:44:11;22.98;;;15.27;;
68214;SDS011;55036;52.138;5.236;2022-10-31T08:46:37;36.35;;;16.13;;
68214;SDS011;55036;52.138;5.236;2022-10-31T08:49:04;23.48;;;13.45;;
68214;SDS011;55036;52.138;5.236;2022-10-31T08:51:31;23.83;;;16.73;;
68214;SDS011;55036;52.138;5.236;2022-10-31T08:53:57;25.98;;;15.45;;
68214;SDS011;55036;52.138;5.236;2022-10-31T08:56:24;35.67;;;21.30;;
68214;SDS011;55036;52.138;5.236;2022-10-31T08:58:52;24.13;;;15.95;;
68214;SDS011;55036;52.138;5.236;2022-10-31T09:01:19;28.80;;;18.42;;
68214;SDS011;55036;52.138;5.236;2022-10-31T09:03:45;25.63;;;17.98;;
68214;SDS011;55036;52.138;5.236;2022-10-31T09:06:12;27.35;;;18.13;;
68214;SDS011;55036;52.138;5.236;2022-10-31T09:08:39;27.67;;;17.65;;
68214;SDS011;55036;52.138;5.236;2022-10-31T09:11:05;29.58;;;19.20;;
68214;SDS011;55036;52.138;5.236;2022-10-31T09:13:32;33.75;;;19.25;;
68214;SDS011;55036;52.138;5.236;2022-10-31T09:16:06;25.80;;;18.35;;
68214;SDS011;55036;52.138;5.236;2022-10-31T09:18:33;28.70;;;18.52;;
68214;SDS011;55036;52.138;5.236;2022-10-31T09:21:00;31.30;;;20.25;;
68214;SDS011;55036;52.138;5.236;2022-10-31T09:23:27;33.85;;;20.70;;
68214;SDS011;55036;52.138;5.236;2022-10-31T09:25:54;33.53;;;20.67;;
68214;SDS011;55036;52.138;5.236;2022-10-31T09:28:22;30.13;;;20.60;;
68214;SDS011;55036;52.138;5.236;2022-10-31T09:30:50;32.85;;;19.35;;
68214;SDS011;55036;52.138;5.236;2022-10-31T09:33:18;28.58;;;20.10;;
68214;SDS011;55036;52.138;5.236;2022-10-31T09:35:45;26.20;;;19.05;;
68214;SDS011;55036;52.138;5.236;2022-10-31T09:38:13;29.70;;;19.98;;
68214;SDS011;55036;52.138;5.236;2022-10-31T09:44:18;37.38;;;19.42;;
68214;SDS011;55036;52.138;5.236;2022-10-31T09:46:53;29.45;;;18.83;;
68214;SDS011;55036;52.138;5.236;2022-10-31T09:52:20;31.30;;;18.60;;
68214;SDS011;55036;52.138;5.236;2022-10-31T09:55:15;27.63;;;17.52;;
68214;SDS011;55036;52.138;5.236;2022-10-31T09:57:49;31.50;;;18.70;;
68214;SDS011;55036;52.138;5.236;2022-10-31T10:00:17;30.77;;;18.65;;
68214;SDS011;55036;52.138;5.236;2022-10-31T10:03:07;31.77;;;19.02;;
68214;SDS011;55036;52.138;5.236;2022-10-31T10:05:52;29.98;;;18.63;;
68214;SDS011;55036;52.138;5.236;2022-10-31T10:08:35;22.88;;;15.48;;
68214;SDS011;55036;52.138;5.236;2022-10-31T10:11:19;21.63;;;16.08;;
68214;SDS011;55036;52.138;5.236;2022-10-31T10:19:19;23.73;;;14.85;;
68214;SDS011;55036;52.138;5.236;2022-10-31T10:22:27;20.60;;;13.85;;
68214;SDS011;55036;52.138;5.236;2022-10-31T10:25:24;18.27;;;11.98;;
68214;SDS011;55036;52.138;5.236;2022-10-31T10:31:12;18.40;;;11.75;;
68214;SDS011;55036;52.138;5.236;2022-10-31T10:33:54;16.08;;;11.93;;
68214;SDS011;55036;52.138;5.236;2022-10-31T10:36:56;18.70;;;11.13;;
68214;SDS011;55036;52.138;5.236;2022-10-31T10:39:38;16.20;;;10.90;;
68214;SDS011;55036;52.138;5.236;2022-10-31T10:42:09;18.48;;;10.88;;
68214;SDS011;55036;52.138;5.236;2022-10-31T10:44:57;16.60;;;11.55;;
68214;SDS011;55036;52.138;5.236;2022-10-31T10:47:46;16.83;;;10.82;;
68214;SDS011;55036;52.138;5.236;2022-10-31T10:55:58;20.15;;;11.60;;
68214;SDS011;55036;52.138;5.236;2022-10-31T10:58:26;21.58;;;12.48;;
68214;SDS011;55036;52.138;5.236;2022-10-31T11:00:53;20.95;;;13.65;;
68214;SDS011;55036;52.138;5.236;2022-10-31T11:03:21;20.20;;;13.20;;
68214;SDS011;55036;52.138;5.236;2022-10-31T11:05:51;30.85;;;13.02;;
68214;SDS011;55036;52.138;5.236;2022-10-31T11:08:34;22.60;;;14.70;;
68214;SDS011;55036;52.138;5.236;2022-10-31T11:11:05;19.25;;;13.50;;
68214;SDS011;55036;52.138;5.236;2022-10-31T11:14:02;20.27;;;13.65;;
68214;SDS011;55036;52.138;5.236;2022-10-31T11:16:32;18.90;;;13.35;;
68214;SDS011;55036;52.138;5.236;2022-10-31T11:21:45;22.98;;;13.63;;
68214;SDS011;55036;52.138;5.236;2022-10-31T11:24:25;21.75;;;15.65;;
68214;SDS011;55036;52.138;5.236;2022-10-31T11:27:02;20.50;;;13.45;;
68214;SDS011;55036;52.138;5.236;2022-10-31T11:29:45;21.85;;;13.65;;
68214;SDS011;55036;52.138;5.236;2022-10-31T11:32:18;18.20;;;13.45;;
68214;SDS011;55036;52.138;5.236;2022-10-31T11:34:47;22.77;;;14.98;;
68214;SDS011;55036;52.138;5.236;2022-10-31T11:37:23;24.95;;;14.68;;
68214;SDS011;55036;52.138;5.236;2022-10-31T11:39:53;21.67;;;14.38;;
68214;SDS011;55036;52.138;5.236;2022-10-31T11:42:34;23.48;;;14.68;;
68214;SDS011;55036;52.138;5.236;2022-10-31T11:45:12;30.70;;;15.50;;
68214;SDS011;55036;52.138;5.236;2022-10-31T11:47:50;23.70;;;14.77;;
68214;SDS011;55036;52.138;5.236;2022-10-31T11:50:35;24.65;;;16.20;;
68214;SDS011;55036;52.138;5.236;2022-10-31T11:53:12;28.75;;;16.33;;
68214;SDS011;55036;52.138;5.236;2022-10-31T11:55:44;32.08;;;16.70;;
68214;SDS011;55036;52.138;5.236;2022-10-31T11:58:22;29.88;;;17.35;;
68214;SDS011;55036;52.138;5.236;2022-10-31T12:00:55;24.48;;;15.38;;
68214;SDS011;55036;52.138;5.236;2022-10-31T12:05:53;27.00;;;16.52;;
68214;SDS011;55036;52.138;5.236;2022-10-31T12:08:23;28.30;;;17.48;;
68214;SDS011;55036;52.138;5.236;2022-10-31T12:13:30;31.02;;;18.45;;
68214;SDS011;55036;52.138;5.236;2022-10-31T12:16:09;33.22;;;18.15;;
68214;SDS011;55036;52.138;5.236;2022-10-31T12:18:56;32.08;;;17.70;;
68214;SDS011;55036;52.138;5.236;2022-10-31T12:21:29;29.75;;;18.20;;
68214;SDS011;55036;52.138;5.236;2022-10-31T12:38:46;32.50;;;19.42;;
68214;SDS011;55036;52.138;5.236;2022-10-31T12:46:25;34.20;;;20.42;;
68214;SDS011;55036;52.138;5.236;2022-10-31T12:51:56;33.75;;;20.27;;
68214;SDS011;55036;52.138;5.236;2022-10-31T12:54:53;32.08;;;20.40;;
68214;SDS011;55036;52.138;5.236;2022-10-31T12:57:45;39.38;;;21.90;;
68214;SDS011;55036;52.138;5.236;2022-10-31T13:00:23;43.92;;;21.92;;
68214;SDS011;55036;52.138;5.236;2022-10-31T13:05:36;38.13;;;21.88;;
68214;SDS011;55036;52.138;5.236;2022-10-31T13:08:10;35.75;;;21.42;;
68214;SDS011;55036;52.138;5.236;2022-10-31T13:10:47;39.53;;;21.15;;
68214;SDS011;55036;52.138;5.236;2022-10-31T13:13:18;40.13;;;23.42;;
68214;SDS011;55036;52.138;5.236;2022-10-31T13:16:15;39.33;;;22.17;;
68214;SDS011;55036;52.138;5.236;2022-10-31T13:18:46;34.88;;;22.50;;
68214;SDS011;55036;52.138;5.236;2022-10-31T13:21:25;37.17;;;23.08;;
68214;SDS011;55036;52.138;5.236;2022-10-31T13:23:54;39.95;;;22.08;;
68214;SDS011;55036;52.138;5.236;2022-10-31T13:32:04;40.75;;;22.75;;
68214;SDS011;55036;52.138;5.236;2022-10-31T13:34:39;40.75;;;22.17;;
68214;SDS011;55036;52.138;5.236;2022-10-31T13:37:16;40.78;;;23.35;;
68214;SDS011;55036;52.138;5.236;2022-10-31T13:40:05;37.75;;;22.48;;
68214;SDS011;55036;52.138;5.236;2022-10-31T13:42:48;43.53;;;22.27;;
68214;SDS011;55036;52.138;5.236;2022-10-31T13:45:24;40.70;;;23.65;;
68214;SDS011;55036;52.138;5.236;2022-10-31T13:48:17;40.45;;;22.70;;
68214;SDS011;55036;52.138;5.236;2022-10-31T13:50:59;40.50;;;22.10;;
68214;SDS011;55036;52.138;5.236;2022-10-31T13:56:22;41.28;;;22.42;;
68214;SDS011;55036;52.138;5.236;2022-10-31T14:01:37;36.60;;;22.35;;
68214;SDS011;55036;52.138;5.236;2022-10-31T14:04:20;36.10;;;21.85;;
68214;SDS011;55036;52.138;5.236;2022-10-31T14:06:53;41.80;;;20.98;;
68214;SDS011;55036;52.138;5.236;2022-10-31T14:09:24;41.17;;;21.33;;
68214;SDS011;55036;52.138;5.236;2022-10-31T14:11:55;38.08;;;21.45;;
68214;SDS011;55036;52.138;5.236;2022-10-31T14:14:26;36.25;;;20.92;;
68214;SDS011;55036;52.138;5.236;2022-10-31T14:16:57;42.90;;;21.40;;
68214;SDS011;55036;52.138;5.236;2022-10-31T14:19:24;35.42;;;19.33;;
68214;SDS011;55036;52.138;5.236;2022-10-31T14:21:51;36.50;;;20.67;;
68214;SDS011;55036;52.138;5.236;2022-10-31T14:29:34;33.33;;;19.05;;
68214;SDS011;55036;52.138;5.236;2022-10-31T14:34:41;33.95;;;19.73;;
68214;SDS011;55036;52.138;5.236;2022-10-31T14:40:16;31.30;;;17.83;;
68214;SDS011;55036;52.138;5.236;2022-10-31T14:43:00;32.63;;;19.02;;
68214;SDS011;55036;52.138;5.236;2022-10-31T14:48:03;35.25;;;19.02;;
68214;SDS011;55036;52.138;5.236;2022-10-31T14:50:48;39.08;;;20.73;;
68214;SDS011;55036;52.138;5.236;2022-10-31T14:54:11;34.45;;;19.05;;
68214;SDS011;55036;52.138;5.236;2022-10-31T14:56:32;36.20;;;19.52;;
68214;SDS011;55036;52.138;5.236;2022-10-31T14:59:03;38.38;;;18.67;;
68214;SDS011;55036;52.138;5.236;2022-10-31T15:01:35;38.83;;;19.63;;
68214;SDS011;55036;52.138;5.236;2022-10-31T15:04:09;36.92;;;20.15;;
68214;SDS011;55036;52.138;5.236;2022-10-31T15:07:00;37.50;;;20.35;;
68214;SDS011;55036;52.138;5.236;2022-10-31T15:09:34;36.80;;;19.73;;
68214;SDS011;55036;52.138;5.236;2022-10-31T15:14:50;37.70;;;19.85;;
68214;SDS011;55036;52.138;5.236;2022-10-31T15:17:17;37.97;;;20.48;;
68214;SDS011;55036;52.138;5.236;2022-10-31T15:19:44;35.22;;;20.17;;
68214;SDS011;55036;52.138;5.236;2022-10-31T15:22:14;36.10;;;20.00;;
68214;SDS011;55036;52.138;5.236;2022-10-31T15:24:42;38.60;;;20.05;;
68214;SDS011;55036;52.138;5.236;2022-10-31T15:27:11;35.05;;;20.02;;
68214;SDS011;55036;52.138;5.236;2022-10-31T15:29:50;36.17;;;21.08;;
68214;SDS011;55036;52.138;5.236;2022-10-31T15:32:22;35.95;;;21.73;;
68214;SDS011;55036;52.138;5.236;2022-10-31T15:34:50;36.85;;;20.58;;
68214;SDS011;55036;52.138;5.236;2022-10-31T15:37:19;35.03;;;19.95;;
68214;SDS011;55036;52.138;5.236;2022-10-31T15:39:47;40.92;;;20.30;;
68214;SDS011;55036;52.138;5.236;2022-10-31T15:44:47;40.22;;;21.27;;
68214;SDS011;55036;52.138;5.236;2022-10-31T15:47:19;39.28;;;21.73;;
68214;SDS011;55036;52.138;5.236;2022-10-31T15:49:51;40.00;;;21.48;;
68214;SDS011;55036;52.138;5.236;2022-10-31T15:54:56;42.55;;;21.90;;
68214;SDS011;55036;52.138;5.236;2022-10-31T15:57:30;36.47;;;20.92;;
68214;SDS011;55036;52.138;5.236;2022-10-31T15:59:57;38.33;;;21.17;;
68214;SDS011;55036;52.138;5.236;2022-10-31T16:02:25;37.85;;;20.35;;
68214;SDS011;55036;52.138;5.236;2022-10-31T16:04:54;41.33;;;20.92;;
68214;SDS011;55036;52.138;5.236;2022-10-31T16:07:23;36.88;;;20.65;;
68214;SDS011;55036;52.138;5.236;2022-10-31T16:09:55;40.33;;;21.75;;
68214;SDS011;55036;52.138;5.236;2022-10-31T16:12:33;43.00;;;18.95;;
68214;SDS011;55036;52.138;5.236;2022-10-31T16:15:02;38.75;;;20.98;;
68214;SDS011;55036;52.138;5.236;2022-10-31T16:17:30;37.30;;;20.55;;
68214;SDS011;55036;52.138;5.236;2022-10-31T16:19:59;39.35;;;20.77;;
68214;SDS011;55036;52.138;5.236;2022-10-31T16:22:31;35.45;;;20.05;;
68214;SDS011;55036;52.138;5.236;2022-10-31T16:25:15;37.55;;;20.33;;
68214;SDS011;55036;52.138;5.236;2022-10-31T16:27:49;34.45;;;19.77;;
68214;SDS011;55036;52.138;5.236;2022-10-31T16:30:30;32.17;;;15.82;;
68214;SDS011;55036;52.138;5.236;2022-10-31T16:35:59;36.25;;;20.27;;
68214;SDS011;55036;52.138;5.236;2022-10-31T16:38:49;40.03;;;19.25;;
68214;SDS011;55036;52.138;5.236;2022-10-31T16:41:15;32.55;;;20.13;;
68214;SDS011;55036;52.138;5.236;2022-10-31T16:43:42;41.10;;;21.05;;
68214;SDS011;55036;52.138;5.236;2022-10-31T16:46:14;41.80;;;20.50;;
68214;SDS011;55036;52.138;5.236;2022-10-31T16:48:42;39.08;;;20.35;;
68214;SDS011;55036;52.138;5.236;2022-10-31T16:51:08;35.08;;;20.58;;
68214;SDS011;55036;52.138;5.236;2022-10-31T16:53:35;36.55;;;19.90;;